createdAt,value
2022-08-30T00:00:05.462Z,18.44
2022-08-30T00:05:08.570Z,18.46
2022-08-30T00:10:11.385Z,18.44
2022-08-30T00:15:14.268Z,18.22
2022-08-30T00:20:21.868Z,18.16
2022-08-30T00:25:25.013Z,18.12
2022-08-30T00:30:27.341Z,17.98
2022-08-30T00:35:29.586Z,18.04
2022-08-30T00:40:31.714Z,18.22
2022-08-30T00:45:36.861Z,18.14
2022-08-30T00:50:50.445Z,17.73
2022-08-30T00:55:55.127Z,17.75
2022-08-30T01:01:00.983Z,17.74
2022-08-30T01:06:04.799Z,17.59
2022-08-30T01:11:08.120Z,17.53
2022-08-30T01:16:11.084Z,17.58
2022-08-30T01:21:34.447Z,17.69
2022-08-30T01:26:37.696Z,17.68
2022-08-30T01:31:40.156Z,17.49
2022-08-30T01:36:45.236Z,17.62
2022-08-30T01:41:47.525Z,17.40
2022-08-30T01:46:49.789Z,17.29
2022-08-30T01:52:00.924Z,17.33
2022-08-30T01:57:04.387Z,17.41
2022-08-30T02:02:07.238Z,17.56
2022-08-30T02:07:10.105Z,17.69
2022-08-30T02:12:12.384Z,17.59
2022-08-30T02:17:16.197Z,17.54
2022-08-30T02:22:18.433Z,17.51
2022-08-30T02:27:20.611Z,17.33
2022-08-30T02:32:22.829Z,17.39
2022-08-30T02:37:25.237Z,17.48
2022-08-30T02:42:27.334Z,17.31
2022-08-30T02:47:29.398Z,17.29
2022-08-30T02:52:31.845Z,17.23
2022-08-30T02:57:34.277Z,17.02
2022-08-30T03:02:36.378Z,16.90
2022-08-30T03:07:38.748Z,16.98
2022-08-30T03:12:42.130Z,16.71
2022-08-30T03:17:44.456Z,16.61
2022-08-30T03:22:46.680Z,16.78
2022-08-30T03:27:50.847Z,16.90
2022-08-30T03:32:53.251Z,16.87
2022-08-30T03:37:56.266Z,16.95
2022-08-30T03:42:58.707Z,17.07
2022-08-30T03:48:03.174Z,17.25
2022-08-30T03:53:05.524Z,17.18
2022-08-30T03:58:07.719Z,17.17
2022-08-30T04:03:09.993Z,17.16
2022-08-30T04:08:12.181Z,17.33
2022-08-30T04:13:18.654Z,17.13
2022-08-30T04:18:21.252Z,17.00
2022-08-30T04:23:23.377Z,17.39
2022-08-30T04:28:25.862Z,17.60
2022-08-30T04:33:28.608Z,17.48
2022-08-30T04:38:31.349Z,17.42
2022-08-30T04:43:34.381Z,17.17
2022-08-30T04:48:38.069Z,17.26
2022-08-30T04:53:42.482Z,17.62
2022-08-30T04:58:47.006Z,18.17
2022-08-30T05:03:50.470Z,18.26
2022-08-30T05:08:54.333Z,18.65
2022-08-30T05:13:56.447Z,18.45
2022-08-30T05:18:58.552Z,18.70
2022-08-30T05:24:01.477Z,19.20
2022-08-30T05:29:03.865Z,19.75
2022-08-30T05:34:06.248Z,20.14
2022-08-30T05:39:10.126Z,21.17
2022-08-30T05:44:12.656Z,25.02
2022-08-30T05:49:15.238Z,26.67
2022-08-30T05:54:17.399Z,28.78
2022-08-30T05:59:19.876Z,30.59
2022-08-30T06:04:22.084Z,30.03
2022-08-30T06:09:24.791Z,29.97
2022-08-30T06:14:27.102Z,30.05
2022-08-30T06:19:29.416Z,32.61
2022-08-30T06:24:55.989Z,35.59
2022-08-30T06:29:54.419Z,34.93
2022-08-30T06:34:56.627Z,36.15
2022-08-30T06:40:00.226Z,36.44
2022-08-30T06:45:11.039Z,35.84
2022-08-30T06:50:17.379Z,37.14
2022-08-30T06:55:20.137Z,37.79
2022-08-30T07:00:22.409Z,37.96
2022-08-30T07:05:24.718Z,37.58
2022-08-30T07:10:27.155Z,36.75
2022-08-30T07:15:29.389Z,36.69
2022-08-30T07:20:40.260Z,36.18
2022-08-30T07:25:43.176Z,35.66
2022-08-30T07:30:45.300Z,35.17
2022-08-30T07:35:47.410Z,35.60
2022-08-30T07:40:49.652Z,35.05
2022-08-30T07:45:51.925Z,35.08
2022-08-30T07:50:57.681Z,34.18
2022-08-30T07:56:02.139Z,34.74
2022-08-30T08:01:09.771Z,33.95
2022-08-30T08:06:14.985Z,34.67
2022-08-30T08:11:23.675Z,33.60
2022-08-30T08:16:29.264Z,33.10
2022-08-30T08:21:31.882Z,33.87
2022-08-30T08:26:36.494Z,33.17
2022-08-30T08:31:38.979Z,34.02
2022-08-30T08:36:41.604Z,33.94
2022-08-30T08:42:16.677Z,34.09
2022-08-30T08:47:35.709Z,34.13
2022-08-30T08:53:20.445Z,33.88
2022-08-30T08:58:35.152Z,34.27
2022-08-30T09:03:37.868Z,34.67
2022-08-30T09:08:40.134Z,34.36
2022-08-30T09:13:42.976Z,34.72
2022-08-30T09:18:51.358Z,34.49
2022-08-30T09:24:04.824Z,35.03
2022-08-30T09:29:17.695Z,34.81
2022-08-30T09:34:22.551Z,33.97
2022-08-30T09:39:37.596Z,33.33
2022-08-30T09:44:40.465Z,34.19
2022-08-30T09:49:44.961Z,34.52
2022-08-30T09:55:15.003Z,35.00
2022-08-30T10:00:23.598Z,34.45
2022-08-30T10:06:11.788Z,33.88
2022-08-30T10:11:21.359Z,34.70
2022-08-30T10:16:44.779Z,34.84
2022-08-30T10:21:47.016Z,34.64
2022-08-30T10:26:58.314Z,34.25
2022-08-30T10:32:13.105Z,34.20
2022-08-30T10:37:19.903Z,33.85
2022-08-30T10:42:37.960Z,34.50
2022-08-30T10:47:54.067Z,34.04
2022-08-30T10:53:02.547Z,33.27
2022-08-30T10:58:06.764Z,34.49
2022-08-30T11:03:46.820Z,33.36
2022-08-30T11:09:18.581Z,32.70
2022-08-30T11:14:25.572Z,33.89
2022-08-30T11:19:40.755Z,33.99
2022-08-30T11:25:01.910Z,34.52
2022-08-30T11:30:26.669Z,33.37
2022-08-30T11:35:55.868Z,32.92
2022-08-30T11:40:59.145Z,34.20
2022-08-30T11:46:15.550Z,34.66
2022-08-30T11:51:50.831Z,35.38
2022-08-30T11:57:17.729Z,35.77
2022-08-30T12:02:45.156Z,34.56
2022-08-30T12:08:01.096Z,33.39
2022-08-30T12:13:04.085Z,33.10
2022-08-30T12:18:28.414Z,32.39
2022-08-30T12:23:44.752Z,31.57
2022-08-30T12:28:49.760Z,31.61
2022-08-30T12:34:00.788Z,31.82
2022-08-30T12:39:30.992Z,31.51
2022-08-30T12:44:34.278Z,30.93
2022-08-30T12:49:38.233Z,31.05
2022-08-30T12:54:41.145Z,31.40
2022-08-30T12:59:58.482Z,32.01
2022-08-30T13:05:42.935Z,31.62
2022-08-30T13:11:08.098Z,31.02
2022-08-30T13:16:21.868Z,31.12
2022-08-30T13:21:26.662Z,31.16
2022-08-30T13:26:32.985Z,30.85
2022-08-30T13:31:37.217Z,31.04
2022-08-30T13:36:48.452Z,30.46
2022-08-30T13:41:51.708Z,30.10
2022-08-30T13:47:32.077Z,29.86
2022-08-30T13:52:25.841Z,29.85
2022-08-30T14:02:57.647Z,29.57
2022-08-30T14:08:03.231Z,29.10
2022-08-30T14:13:09.046Z,28.81
2022-08-30T14:18:15.847Z,28.72
2022-08-30T14:23:20.849Z,28.77
2022-08-30T14:28:23.739Z,28.21
2022-08-30T14:33:26.428Z,27.68
2022-08-30T14:38:28.689Z,27.94
2022-08-30T14:43:32.013Z,27.81
2022-08-30T14:48:34.345Z,27.82
2022-08-30T14:53:36.956Z,27.61
2022-08-30T14:58:39.126Z,27.36
2022-08-30T15:03:42.874Z,27.30
2022-08-30T15:08:47.765Z,27.24
2022-08-30T15:13:52.975Z,27.13
2022-08-30T15:18:58.310Z,26.96
2022-08-30T15:24:02.528Z,26.42
2022-08-30T15:29:04.888Z,26.73
2022-08-30T15:34:12.845Z,26.54
2022-08-30T15:39:16.163Z,26.23
2022-08-30T15:44:18.444Z,26.06
2022-08-30T15:49:23.385Z,25.70
2022-08-30T15:54:26.003Z,25.76
2022-08-30T15:59:30.353Z,25.64
2022-08-30T16:04:32.684Z,25.49
2022-08-30T16:09:36.859Z,25.46
2022-08-30T16:14:40.617Z,24.88
2022-08-30T16:19:43.734Z,24.82
2022-08-30T16:24:46.621Z,24.79
2022-08-30T16:29:50.173Z,23.85
2022-08-30T16:34:52.612Z,23.95
2022-08-30T16:39:55.190Z,23.70
2022-08-30T16:44:57.711Z,23.26
2022-08-30T16:50:00.835Z,23.22
2022-08-30T16:55:03.714Z,23.05
2022-08-30T17:00:12.996Z,22.79
2022-08-30T17:05:15.854Z,21.98
2022-08-30T17:10:23.098Z,22.17
2022-08-30T17:15:27.339Z,22.08
2022-08-30T17:20:34.139Z,21.95
2022-08-30T17:25:37.738Z,21.88
2022-08-30T17:30:40.311Z,21.42
2022-08-30T17:35:42.652Z,21.51
2022-08-30T17:40:47.061Z,21.19
2022-08-30T17:45:49.471Z,21.36
2022-08-30T17:50:58.133Z,21.25
2022-08-30T17:56:00.649Z,21.27
2022-08-30T18:01:11.587Z,20.99
2022-08-30T18:06:14.943Z,20.81
2022-08-30T18:11:19.127Z,20.79
2022-08-30T18:16:21.725Z,20.96
2022-08-30T18:21:28.863Z,21.04
2022-08-30T18:26:32.257Z,20.69
2022-08-30T18:31:34.521Z,20.77
2022-08-30T18:36:36.745Z,20.87
2022-08-30T18:41:42.953Z,21.00
2022-08-30T18:46:55.831Z,21.02
2022-08-30T18:51:59.409Z,20.81
2022-08-30T18:57:01.794Z,20.77
2022-08-30T19:02:05.942Z,21.01
2022-08-30T19:07:10.172Z,21.36
2022-08-30T19:12:14.826Z,21.45
2022-08-30T19:17:19.219Z,21.41
2022-08-30T19:22:27.445Z,21.40
2022-08-30T19:27:37.236Z,21.09
2022-08-30T19:32:40.531Z,20.89
2022-08-30T19:37:43.826Z,20.74
2022-08-30T19:42:47.040Z,20.83
2022-08-30T19:47:50.135Z,21.02
2022-08-30T19:52:54.678Z,21.17
2022-08-30T19:57:58.021Z,21.14
2022-08-30T20:03:01.625Z,21.27
2022-08-30T20:08:04.384Z,21.17
2022-08-30T20:13:06.690Z,21.02
2022-08-30T20:18:13.387Z,20.88
2022-08-30T20:23:19.699Z,21.15
2022-08-30T20:28:26.085Z,20.99
2022-08-30T20:33:28.278Z,20.82
2022-08-30T20:38:31.022Z,20.69
2022-08-30T20:43:33.282Z,20.79
2022-08-30T20:48:35.769Z,20.83
2022-08-30T20:53:38.748Z,20.95
2022-08-30T20:58:41.317Z,21.01
2022-08-30T21:03:45.038Z,21.18
2022-08-30T21:08:50.570Z,20.78
2022-08-30T21:13:52.728Z,20.94
2022-08-30T21:18:54.832Z,20.84
2022-08-30T21:24:00.306Z,20.91
2022-08-30T21:29:02.776Z,20.71
2022-08-30T21:34:05.979Z,20.73
2022-08-30T21:39:09.581Z,20.94
2022-08-30T21:44:18.793Z,20.84
2022-08-30T21:49:23.904Z,21.04
2022-08-30T21:54:28.320Z,20.93
2022-08-30T21:59:34.186Z,20.86
2022-08-30T22:04:36.332Z,20.79
2022-08-30T22:09:38.707Z,21.13
2022-08-30T22:14:41.395Z,21.15
2022-08-30T22:19:43.546Z,21.28
2022-08-30T22:24:45.824Z,21.03
2022-08-30T22:29:48.030Z,20.81
2022-08-30T22:34:51.301Z,20.71
2022-08-30T22:39:53.527Z,20.58
2022-08-30T22:44:55.662Z,20.62
2022-08-30T22:49:57.958Z,19.86
2022-08-30T22:55:01.138Z,20.07
2022-08-30T23:00:08.869Z,19.54
2022-08-30T23:05:13.169Z,19.41
2022-08-30T23:10:15.567Z,19.42
2022-08-30T23:15:17.999Z,19.34
2022-08-30T23:20:20.808Z,18.80
2022-08-30T23:25:44.474Z,18.63
2022-08-30T23:31:05.241Z,18.87
2022-08-30T23:36:31.746Z,19.01
2022-08-30T23:41:52.486Z,19.03
2022-08-30T23:47:13.238Z,18.97
2022-08-30T23:52:34.029Z,18.91
2022-08-30T23:57:54.712Z,18.79
